Time;durP1;ratioP1;P1;durP2;ratioP2;P2;SDS_P1;SDS_P2;PMS_P1;PMS_P2;Temp;Humidity;BMP_temperature;BMP_pressure;BME280_temperature;BME280_humidity;BME280_pressure;Samples;Min_cycle;Max_cycle;Signal;HPM_P1;HPM_P2
2021/10/09 00:02:14;;;;;;;33.90;26.00;;;17.30;68.90;;;;;;5016107;27;95951;-52
2021/10/09 00:04:44;;;;;;;33.50;25.20;;;17.30;69.50;;;;;;5011042;27;95604;-51
2021/10/09 00:07:14;;;;;;;31.73;25.15;;;17.40;68.90;;;;;;5018294;27;95934;-51
2021/10/09 00:09:45;;;;;;;36.63;28.02;;;17.40;68.80;;;;;;5013533;27;95797;-52
2021/10/09 00:12:20;;;;;;;39.30;31.08;;;17.40;69.10;;;;;;5005765;27;95893;-54
2021/10/09 00:14:54;;;;;;;37.83;30.17;;;17.40;69.30;;;;;;5010324;27;95980;-54
2021/10/09 00:17:28;;;;;;;35.72;29.85;;;17.50;69.40;;;;;;5016189;27;96048;-51
2021/10/09 00:20:02;;;;;;;38.30;29.00;;;17.50;69.30;;;;;;5017948;27;96847;-54
2021/10/09 00:22:35;;;;;;;35.75;27.98;;;17.50;68.90;;;;;;4991901;27;98405;-53
2021/10/09 00:25:08;;;;;;;38.22;29.02;;;17.50;69.10;;;;;;5013566;27;95907;-53
2021/10/09 00:27:43;;;;;;;34.95;29.35;;;17.60;69.00;;;;;;5013215;27;95644;-53
2021/10/09 00:30:15;;;;;;;38.55;29.50;;;17.60;69.00;;;;;;4994369;27;95946;-52
2021/10/09 00:32:46;;;;;;;33.67;26.33;;;17.60;69.00;;;;;;4991933;28;96175;-54
2021/10/09 00:35:17;;;;;;;34.38;26.98;;;17.70;68.90;;;;;;5020662;27;95558;-52
2021/10/09 00:37:48;;;;;;;33.35;27.30;;;17.70;68.80;;;;;;4992660;28;95981;-52
2021/10/09 00:40:18;;;;;;;32.73;26.43;;;17.80;68.90;;;;;;5006285;28;95923;-51
2021/10/09 00:42:48;;;;;;;34.17;26.80;;;17.80;68.80;;;;;;5006162;27;97056;-54
2021/10/09 00:45:18;;;;;;;29.80;24.73;;;17.80;68.80;;;;;;5007874;27;96893;-50
2021/10/09 00:47:50;;;;;;;29.85;24.13;;;17.90;68.60;;;;;;5021553;27;95896;-52
2021/10/09 00:50:23;;;;;;;30.75;23.90;;;17.90;68.80;;;;;;5010636;27;95834;-50
2021/10/09 00:52:58;;;;;;;29.85;25.13;;;18.00;68.80;;;;;;5012005;27;96347;-51
2021/10/09 00:55:29;;;;;;;28.60;22.58;;;18.00;68.60;;;;;;5011753;28;95848;-53
2021/10/09 00:58:02;;;;;;;32.42;24.63;;;18.00;68.60;;;;;;5017367;27;95788;-49
2021/10/09 01:00:34;;;;;;;25.83;21.38;;;18.10;68.60;;;;;;5012749;27;95893;-49
2021/10/09 01:03:06;;;;;;;28.02;22.20;;;18.10;68.40;;;;;;5021681;27;95882;-52
2021/10/09 01:05:37;;;;;;;27.02;21.58;;;18.20;68.50;;;;;;5019630;27;95936;-51
2021/10/09 01:08:09;;;;;;;27.13;20.83;;;18.10;68.30;;;;;;4998517;27;95803;-52
2021/10/09 01:10:39;;;;;;;23.25;17.73;;;18.20;68.30;;;;;;4989360;28;95696;-50
2021/10/09 01:13:10;;;;;;;24.23;19.70;;;18.20;68.20;;;;;;5008037;27;95953;-53
2021/10/09 01:15:42;;;;;;;23.70;18.88;;;18.30;68.20;;;;;;4998462;28;97826;-51
2021/10/09 01:18:20;;;;;;;22.02;17.50;;;18.30;68.10;;;;;;5006929;27;96087;-63
2021/10/09 01:21:04;;;;;;;21.48;18.08;;;18.40;59.80;;;;;;5010621;27;95296;-51
2021/10/09 01:23:41;;;;;;;21.02;16.23;;;18.40;68.10;;;;;;5016361;27;97087;-51
2021/10/09 01:26:12;;;;;;;21.95;17.88;;;18.40;68.00;;;;;;5004615;28;97271;-63
2021/10/09 01:28:51;;;;;;;21.25;16.33;;;18.50;67.90;;;;;;4998447;27;95958;-52
2021/10/09 01:31:22;;;;;;;22.15;15.60;;;18.50;67.70;;;;;;5016605;27;95917;-50
2021/10/09 01:33:53;;;;;;;22.73;17.10;;;18.50;67.80;;;;;;4990519;27;96278;-62
2021/10/09 01:36:37;;;;;;;18.88;15.57;;;18.60;67.90;;;;;;4999749;27;95743;-63
2021/10/09 01:39:10;;;;;;;18.02;14.82;;;18.60;67.80;;;;;;5008187;27;96024;-51
2021/10/09 01:41:48;;;;;;;19.60;15.20;;;18.60;67.70;;;;;;4998493;28;97406;-49
2021/10/09 01:44:23;;;;;;;18.10;13.88;;;18.70;67.70;;;;;;5009312;27;98515;-50
2021/10/09 01:46:57;;;;;;;21.38;14.82;;;18.70;67.70;;;;;;5002825;27;98049;-62
2021/10/09 01:49:34;;;;;;;17.10;13.35;;;18.70;67.60;;;;;;5011444;27;96881;-62
2021/10/09 01:52:09;;;;;;;16.73;14.52;;;18.70;67.60;;;;;;4997557;27;95706;-64
2021/10/09 01:54:40;;;;;;;;;;;18.80;67.60;;;;;;4996764;28;98983;-64
2021/10/09 01:57:11;;;;;;;15.70;13.18;;;18.80;67.50;;;;;;4999525;28;96273;-64
2021/10/09 01:59:41;;;;;;;17.08;13.18;;;18.90;67.50;;;;;;5006662;27;95877;-62
2021/10/09 02:02:22;;;;;;;14.55;12.25;;;18.90;67.50;;;;;;4994671;28;95495;-62
2021/10/09 02:04:54;;;;;;;17.38;13.55;;;18.90;67.40;;;;;;4999256;28;97385;-63
2021/10/09 02:07:25;;;;;;;;;;;19.00;67.40;;;;;;5000640;28;98081;-62
2021/10/09 02:09:58;;;;;;;15.10;11.98;;;19.00;67.50;;;;;;5010296;28;95317;-62
2021/10/09 02:12:31;;;;;;;17.13;12.32;;;19.10;67.40;;;;;;4989703;28;95674;-61
2021/10/09 02:15:09;;;;;;;17.52;12.13;;;19.10;59.10;;;;;;5011362;27;96922;-61
2021/10/09 02:26:14;;;;;;;14.10;11.63;;;19.10;67.40;;;;;;4983406;28;96763;-52
2021/10/09 02:28:46;;;;;;;13.95;11.23;;;19.10;67.40;;;;;;4994594;28;95788;-51
2021/10/09 02:31:17;;;;;;;15.82;11.18;;;19.20;67.50;;;;;;4987701;28;98612;-62
2021/10/09 02:33:48;;;;;;;12.52;10.70;;;19.20;67.30;;;;;;4976902;28;95721;-62
2021/10/09 02:36:18;;;;;;;16.13;10.80;;;19.20;67.50;;;;;;4982473;28;96698;-51
2021/10/09 02:38:49;;;;;;;15.48;11.65;;;19.20;67.50;;;;;;4991213;28;96023;-61
2021/10/09 02:41:20;;;;;;;15.23;11.18;;;19.20;67.50;;;;;;4974519;28;95915;-63
2021/10/09 02:43:50;;;;;;;14.00;11.05;;;19.20;67.50;;;;;;4992142;28;95921;-62
2021/10/09 02:46:20;;;;;;;13.98;11.10;;;19.30;67.30;;;;;;4976339;28;98563;-62
2021/10/09 02:48:53;;;;;;;;;;;19.30;67.40;;;;;;5006732;27;95894;-51
2021/10/09 02:51:26;;;;;;;14.95;9.80;;;19.30;67.50;;;;;;5011286;27;97689;-53
2021/10/09 02:53:56;;;;;;;13.85;10.60;;;19.30;67.60;;;;;;5005928;27;96085;-53
2021/10/09 02:56:27;;;;;;;12.93;10.50;;;19.30;67.60;;;;;;4988188;28;98789;-62
2021/10/09 02:58:59;;;;;;;11.13;9.20;;;19.40;62.20;;;;;;5001548;28;97819;-61
2021/10/09 03:01:29;;;;;;;11.75;9.60;;;19.40;67.60;;;;;;5003616;27;98288;-52
2021/10/09 03:03:59;;;;;;;13.73;9.32;;;19.40;67.60;;;;;;5012162;27;95774;-54
2021/10/09 03:06:30;;;;;;;11.05;9.05;;;19.50;67.70;;;;;;4998926;27;96409;-50
2021/10/09 03:09:00;;;;;;;11.38;9.07;;;19.50;67.60;;;;;;5005594;28;97201;-62
2021/10/09 03:11:34;;;;;;;11.27;9.18;;;19.50;67.60;;;;;;5000024;28;96021;-61
2021/10/09 03:14:05;;;;;;;11.63;9.10;;;19.50;67.60;;;;;;4998845;28;95894;-53
2021/10/09 03:16:37;;;;;;;11.95;8.90;;;19.50;67.60;;;;;;4984279;27;96986;-54
2021/10/09 03:19:10;;;;;;;11.10;9.10;;;19.60;67.60;;;;;;4995269;28;97721;-54
2021/10/09 03:21:41;;;;;;;11.68;8.88;;;19.60;67.60;;;;;;4988387;28;95850;-54
2021/10/09 03:24:12;;;;;;;;;;;19.60;67.50;;;;;;5012271;27;95591;-54
2021/10/09 03:26:47;;;;;;;10.05;8.02;;;19.60;67.50;;;;;;4992509;28;95956;-62
2021/10/09 03:29:21;;;;;;;9.88;7.95;;;19.70;67.60;;;;;;4999927;28;96060;-53
2021/10/09 03:31:52;;;;;;;10.75;8.70;;;19.70;67.50;;;;;;4995198;28;95904;-53
2021/10/09 03:34:22;;;;;;;9.77;7.50;;;19.70;67.50;;;;;;5010238;27;95693;-53
2021/10/09 03:36:52;;;;;;;9.82;8.20;;;19.70;67.40;;;;;;5011773;27;96043;-51
2021/10/09 03:39:22;;;;;;;9.18;8.23;;;19.80;67.40;;;;;;4999101;28;98136;-53
2021/10/09 03:41:57;;;;;;;13.45;8.02;;;19.80;67.40;;;;;;5017602;27;95784;-51
2021/10/09 03:44:29;;;;;;;9.25;7.78;;;19.80;67.40;;;;;;5006039;27;95668;-52
2021/10/09 03:47:15;;;;;;;9.90;7.57;;;19.80;67.40;;;;;;4989512;28;96111;-52
2021/10/09 03:49:55;;;;;;;11.27;7.03;;;19.90;67.40;;;;;;5013861;27;95313;-53
2021/10/09 03:52:38;;;;;;;8.80;7.68;;;19.90;67.30;;;;;;5009947;27;95850;-53
2021/10/09 03:55:15;;;;;;;10.43;7.45;;;19.90;67.30;;;;;;4997742;28;96091;-51
2021/10/09 03:57:50;;;;;;;8.57;7.53;;;20.00;67.20;;;;;;4994382;27;99007;-54
2021/10/09 04:00:22;;;;;;;8.98;6.93;;;20.00;67.30;;;;;;4990202;28;96411;-53
2021/10/09 04:02:59;;;;;;;10.18;6.90;;;20.00;67.20;;;;;;4996306;27;95931;-51
2021/10/09 04:05:30;;;;;;;9.07;8.13;;;20.00;67.20;;;;;;5008818;27;95472;-54
2021/10/09 04:08:06;;;;;;;7.22;6.00;;;20.10;67.20;;;;;;4998486;27;96797;-54
2021/10/09 04:10:37;;;;;;;8.48;6.57;;;20.10;67.10;;;;;;5004562;27;95526;-53
2021/10/09 04:13:08;;;;;;;7.28;6.10;;;20.10;67.20;;;;;;5008507;27;95845;-54
2021/10/09 04:15:39;;;;;;;;;;;20.10;65.30;;;;;;5004060;27;95781;-51
2021/10/09 04:18:11;;;;;;;9.95;6.35;;;20.20;67.10;;;;;;4998584;28;98457;-52
2021/10/09 04:20:42;;;;;;;8.68;6.07;;;20.20;67.00;;;;;;5002194;28;97747;-50
2021/10/09 04:23:14;;;;;;;7.53;5.57;;;20.20;66.90;;;;;;5006811;27;96031;-50
2021/10/09 04:25:45;;;;;;;7.50;6.70;;;20.30;67.00;;;;;;5002704;28;96282;-52
2021/10/09 04:28:16;;;;;;;7.13;5.65;;;20.30;66.80;;;;;;4994594;28;96100;-52
2021/10/09 04:30:48;;;;;;;6.60;5.90;;;20.40;66.70;;;;;;5008659;27;99044;-49
2021/10/09 04:33:20;;;;;;;6.90;5.57;;;20.40;66.70;;;;;;5024235;27;95296;-51
2021/10/09 04:35:51;;;;;;;8.85;6.30;;;20.40;66.70;;;;;;5003503;28;95915;-63
2021/10/09 04:38:21;;;;;;;8.18;6.05;;;20.40;66.70;;;;;;5001147;27;96654;-49
2021/10/09 04:40:51;;;;;;;6.82;5.32;;;20.50;66.60;;;;;;5017361;27;98183;-50
2021/10/09 04:43:21;;;;;;;7.15;4.95;;;20.50;66.40;;;;;;5008232;27;95929;-50
2021/10/09 04:45:52;;;;;;;7.45;5.65;;;20.50;66.40;;;;;;4990843;28;95832;-51
2021/10/09 04:48:24;;;;;;;9.98;5.57;;;20.60;66.40;;;;;;5003399;28;98147;-51
2021/10/09 04:50:57;;;;;;;7.25;4.88;;;20.60;66.40;;;;;;5001759;28;95518;-55
2021/10/09 04:53:29;;;;;;;5.93;4.70;;;20.70;66.30;;;;;;4994846;28;95939;-53
2021/10/09 04:56:00;;;;;;;8.88;5.07;;;20.70;66.20;;;;;;4998379;27;98348;-51
2021/10/09 04:58:35;;;;;;;5.75;4.38;;;20.70;65.90;;;;;;5020826;27;95680;-51
2021/10/09 05:01:08;;;;;;;6.43;5.40;;;20.70;65.90;;;;;;4996851;27;97923;-52
2021/10/09 05:03:40;;;;;;;7.60;4.70;;;20.80;65.90;;;;;;4992809;28;95735;-51
2021/10/09 05:06:12;;;;;;;5.60;5.07;;;20.80;65.80;;;;;;5016542;27;95677;-50
2021/10/09 05:08:43;;;;;;;6.65;4.75;;;20.80;65.80;;;;;;5023514;27;96002;-49
2021/10/09 05:11:20;;;;;;;6.32;4.30;;;20.90;57.40;;;;;;5009817;27;96012;-50
2021/10/09 05:13:51;;;;;;;6.88;4.65;;;20.80;65.50;;;;;;5007358;28;95807;-54
2021/10/09 05:16:25;;;;;;;7.25;4.65;;;20.90;65.40;;;;;;4992469;27;96854;-49
2021/10/09 05:18:58;;;;;;;5.43;3.97;;;20.90;65.40;;;;;;4984230;28;96100;-49
2021/10/09 05:21:32;;;;;;;6.25;3.47;;;20.90;65.40;;;;;;5011415;28;95955;-50
2021/10/09 05:24:03;;;;;;;5.03;3.95;;;20.90;65.30;;;;;;5003428;27;96110;-49
2021/10/09 05:26:37;;;;;;;4.45;3.58;;;20.90;65.30;;;;;;5004198;28;98282;-50
2021/10/09 05:29:15;;;;;;;4.45;3.67;;;21.00;65.20;;;;;;5003317;28;96204;-49
2021/10/09 05:31:48;;;;;;;5.25;3.38;;;21.00;65.20;;;;;;5000866;28;97160;-49
2021/10/09 05:34:19;;;;;;;5.65;3.55;;;21.00;65.00;;;;;;5010810;27;95375;-53
2021/10/09 05:36:52;;;;;;;5.80;3.67;;;21.00;64.80;;;;;;5009201;27;96532;-51
2021/10/09 05:39:22;;;;;;;4.75;3.00;;;21.00;64.90;;;;;;5000705;28;98033;-49
2021/10/09 05:41:55;;;;;;;4.00;3.33;;;21.00;64.80;;;;;;5010290;28;98560;-49
2021/10/09 05:44:26;;;;;;;6.03;3.43;;;21.00;64.90;;;;;;5005381;28;95669;-50
2021/10/09 05:46:57;;;;;;;3.65;2.78;;;21.00;64.90;;;;;;5015034;27;95856;-49
2021/10/09 05:49:30;;;;;;;4.72;2.60;;;21.00;64.80;;;;;;5016095;27;98668;-50
2021/10/09 05:52:10;;;;;;;4.50;3.15;;;21.00;64.70;;;;;;5013181;27;97281;-48
2021/10/09 05:55:01;;;;;;;5.60;3.20;;;21.10;64.70;;;;;;4993003;28;97762;-62
2021/10/09 05:57:55;;;;;;;3.70;2.97;;;21.10;64.80;;;;;;5006685;28;95642;-48
2021/10/09 06:59:23;;;;;;;2.50;1.83;;;20.90;55.40;;;;;;5004895;28;95523;-49
2021/10/09 06:59:33;;;;;;;3.65;2.17;;;20.90;55.30;;;;;;4990820;28;96815;-63
2021/10/09 07:02:04;;;;;;;6.57;2.42;;;20.90;55.60;;;;;;4988882;28;95996;-54
2021/10/09 07:04:37;;;;;;;3.75;2.60;;;20.90;56.40;;;;;;4998990;28;95764;-51
2021/10/09 07:07:08;;;;;;;7.05;2.70;;;20.90;55.70;;;;;;5002655;28;97417;-51
2021/10/09 07:09:51;;;;;;;3.97;1.98;;;20.90;56.10;;;;;;5003887;27;95640;-50
2021/10/09 07:12:25;;;;;;;3.78;2.45;;;20.90;57.00;;;;;;4991754;27;96002;-55
2021/10/09 07:14:56;;;;;;;5.97;2.10;;;20.90;56.60;;;;;;4993752;27;95849;-53
2021/10/09 07:17:27;;;;;;;5.18;2.10;;;20.90;57.40;;;;;;4996411;28;96674;-51
2021/10/09 07:19:58;;;;;;;;;;;20.90;57.70;;;;;;4998263;27;97733;-55
2021/10/09 07:22:33;;;;;;;5.68;2.10;;;20.90;58.20;;;;;;5023486;27;95792;-50
2021/10/09 07:25:22;;;;;;;3.33;2.10;;;20.90;59.30;;;;;;5005646;27;96219;-65
2021/10/09 07:27:55;;;;;;;7.38;2.25;;;20.90;59.10;;;;;;4997937;28;96118;-48
2021/10/09 07:30:26;;;;;;;5.50;2.10;;;20.90;59.50;;;;;;4993347;28;97181;-65
2021/10/09 07:32:58;;;;;;;6.50;2.38;;;20.90;59.20;;;;;;5009615;27;95373;-53
2021/10/09 07:35:28;;;;;;;6.65;2.55;;;20.90;59.20;;;;;;5014531;27;95497;-51
2021/10/09 07:37:58;;;;;;;4.88;2.72;;;20.70;54.60;;;;;;5010581;27;95825;-50
2021/10/09 07:40:28;;;;;;;4.53;2.58;;;20.70;55.00;;;;;;5004412;28;95752;-53
2021/10/09 07:42:59;;;;;;;4.32;2.25;;;20.70;56.90;;;;;;5006719;28;96005;-49
2021/10/09 07:45:30;;;;;;;5.55;2.72;;;20.70;57.90;;;;;;5012694;27;95879;-51
2021/10/09 07:48:00;;;;;;;5.78;2.38;;;20.70;57.80;;;;;;5015292;27;95918;-54
2021/10/09 07:50:32;;;;;;;7.47;3.28;;;20.70;57.60;;;;;;5007980;27;96006;-50
2021/10/09 07:53:03;;;;;;;10.75;4.05;;;20.60;56.70;;;;;;5019084;27;95695;-51
2021/10/09 07:55:33;;;;;;;7.55;3.35;;;20.60;57.50;;;;;;5020692;28;95759;-50
2021/10/09 07:58:05;;;;;;;;;;;20.60;58.30;;;;;;5017686;27;96661;-50
2021/10/09 08:00:35;;;;;;;11.57;4.72;;;20.60;58.00;;;;;;5011636;27;95766;-53
2021/10/09 08:03:05;;;;;;;11.93;6.78;;;20.50;58.20;;;;;;5017296;27;95763;-50
2021/10/09 08:05:37;;;;;;;8.97;3.73;;;20.50;57.90;;;;;;5009274;27;95975;-52
2021/10/09 08:08:09;;;;;;;8.95;4.10;;;20.50;57.80;;;;;;5013576;27;95924;-49
2021/10/09 08:10:41;;;;;;;6.50;3.10;;;20.40;57.40;;;;;;5014878;28;95919;-50
2021/10/09 08:13:13;;;;;;;7.20;3.20;;;20.40;57.60;;;;;;5017732;27;95590;-53
2021/10/09 08:15:45;;;;;;;6.57;2.80;;;20.30;57.70;;;;;;5015947;27;99381;-52
2021/10/09 08:18:16;;;;;;;2.67;1.98;;;20.30;57.90;;;;;;5012910;28;96566;-63
2021/10/09 08:20:50;;;;;;;11.50;3.23;;;20.20;57.70;;;;;;5016854;27;96105;-50
2021/10/09 08:23:26;;;;;;;7.40;2.33;;;20.20;57.90;;;;;;5013426;27;96784;-50
2021/10/09 08:39:46;;;;;;;5.28;1.70;;;19.80;57.20;;;;;;5010683;27;95922;-54
2021/10/09 08:42:16;;;;;;;4.50;1.70;;;19.60;58.10;;;;;;5011620;27;95552;-52
2021/10/09 08:44:46;;;;;;;4.07;2.05;;;19.60;58.40;;;;;;5007331;28;95954;-52
2021/10/09 08:47:17;;;;;;;3.45;1.75;;;19.60;58.30;;;;;;5012326;28;95818;-53
2021/10/09 08:49:48;;;;;;;7.85;1.92;;;19.60;58.40;;;;;;5000864;27;95892;-54
2021/10/09 08:52:22;;;;;;;4.45;1.73;;;19.50;58.10;;;;;;5017005;27;95852;-53
2021/10/09 08:54:53;;;;;;;4.05;1.73;;;19.40;58.10;;;;;;5017242;27;95351;-51
2021/10/09 08:57:27;;;;;;;;;;;19.30;57.00;;;;;;5011542;27;95769;-53
2021/10/09 09:00:02;;;;;;;5.63;2.03;;;19.20;57.70;;;;;;5011631;28;97245;-64
2021/10/09 09:02:36;;;;;;;4.10;1.60;;;19.10;57.40;;;;;;5007163;27;95919;-64
2021/10/09 09:25:19;;;;;;;4.57;2.00;;;19.10;58.10;;;;;;4963959;28;95515;-55
2021/10/09 09:40:06;;;;;;;8.80;2.30;;;18.60;60.60;;;;;;5005898;27;95784;-50
2021/10/09 09:42:45;;;;;;;6.18;1.77;;;18.60;61.50;;;;;;5020912;27;96360;-52
2021/10/09 09:45:28;;;;;;;8.55;3.40;;;18.50;53.00;;;;;;4996429;28;96495;-61
2021/10/09 09:48:04;;;;;;;8.13;3.35;;;18.40;62.20;;;;;;5019011;27;102066;-49
2021/10/09 09:50:40;;;;;;;9.88;4.32;;;18.30;62.80;;;;;;5034110;27;96424;-62
2021/10/09 09:53:11;;;;;;;13.98;5.60;;;18.40;62.80;;;;;;5037256;27;95851;-60
2021/10/09 09:55:42;;;;;;;10.83;5.43;;;18.30;62.70;;;;;;5023984;27;97774;-59
2021/10/09 09:58:25;;;;;;;11.82;5.32;;;18.20;63.00;;;;;;5039165;27;95964;-51
2021/10/09 10:01:00;;;;;;;11.63;4.22;;;18.20;62.80;;;;;;5036036;27;95720;-60
2021/10/09 10:03:30;;;;;;;6.82;4.10;;;18.20;63.30;;;;;;5043557;27;95406;-61
2021/10/09 10:06:03;;;;;;;9.02;4.32;;;18.20;64.10;;;;;;5037195;27;95838;-49
2021/10/09 10:08:33;;;;;;;11.38;4.50;;;18.10;64.30;;;;;;5038287;27;95779;-51
2021/10/09 10:11:08;;;;;;;11.60;6.00;;;18.10;64.60;;;;;;5043841;27;95652;-51
2021/10/09 10:13:42;;;;;;;10.13;3.92;;;18.10;65.00;;;;;;5024581;27;96857;-50
2021/10/09 10:16:14;;;;;;;11.85;5.20;;;18.20;65.80;;;;;;5019130;27;96405;-59
2021/10/09 10:18:48;;;;;;;13.30;3.75;;;18.10;65.60;;;;;;5043426;27;96528;-52
2021/10/09 10:21:41;;;;;;;9.70;2.75;;;18.10;66.30;;;;;;5044594;27;96549;-60
2021/10/09 10:24:14;;;;;;;8.88;3.05;;;17.90;67.10;;;;;;5034632;27;96549;-60
2021/10/09 10:26:45;;;;;;;6.93;3.13;;;17.90;67.50;;;;;;5040034;27;96024;-49
2021/10/09 10:29:17;;;;;;;9.20;3.92;;;17.80;68.70;;;;;;5040015;27;96628;-59
2021/10/09 10:32:14;;;;;;;7.70;3.05;;;17.80;68.50;;;;;;5039530;27;95869;-60
2021/10/09 10:34:46;;;;;;;8.55;3.30;;;17.80;68.70;;;;;;5040850;27;95937;-59
2021/10/09 10:37:34;;;;;;;7.78;2.88;;;17.80;69.40;;;;;;5040465;27;96939;-49
2021/10/09 10:40:07;;;;;;;8.60;2.95;;;17.70;70.20;;;;;;5039721;27;96071;-48
2021/10/09 10:42:38;;;;;;;9.57;3.42;;;17.70;70.40;;;;;;5024730;27;95445;-60
2021/10/09 10:45:12;;;;;;;8.60;3.17;;;17.80;70.20;;;;;;5041625;27;95458;-60
2021/10/09 10:48:14;;;;;;;5.43;2.33;;;17.70;70.00;;;;;;5024392;27;98086;-58
2021/10/09 10:56:14;;;;;;;7.13;2.40;;;17.90;69.90;;;;;;5039558;27;97850;-59
2021/10/09 10:58:45;;;;;;;9.73;2.85;;;18.00;69.90;;;;;;5038412;27;96311;-59
2021/10/09 11:01:26;;;;;;;8.52;2.35;;;18.00;69.70;;;;;;5037754;27;96051;-49
2021/10/09 11:03:57;;;;;;;8.05;2.13;;;18.10;69.90;;;;;;5042779;27;95789;-62
2021/10/09 11:06:27;;;;;;;12.77;2.85;;;18.10;69.80;;;;;;5041676;27;95960;-61
2021/10/09 11:08:57;;;;;;;7.03;2.22;;;18.10;69.70;;;;;;5042388;27;96529;-50
2021/10/09 11:11:35;;;;;;;11.30;2.35;;;18.10;69.70;;;;;;5041129;27;96373;-59
2021/10/09 11:14:06;;;;;;;7.30;2.60;;;18.20;69.20;;;;;;5036654;27;95818;-49
2021/10/09 11:16:41;;;;;;;7.65;2.60;;;18.20;69.60;;;;;;5036841;27;95925;-52
2021/10/09 11:19:12;;;;;;;7.35;2.25;;;18.20;69.20;;;;;;5043406;27;96886;-51
2021/10/09 11:21:56;;;;;;;7.53;2.05;;;18.20;68.50;;;;;;5041473;27;95916;-49
2021/10/09 11:24:44;;;;;;;4.68;1.80;;;18.30;68.70;;;;;;5014174;27;95494;-52
2021/10/09 11:27:17;;;;;;;10.38;2.72;;;18.20;68.70;;;;;;5040665;27;95756;-59
2021/10/09 11:30:03;;;;;;;6.30;2.08;;;18.30;68.40;;;;;;5036324;27;96646;-53
2021/10/09 11:32:36;;;;;;;9.15;2.10;;;18.30;68.70;;;;;;5038594;27;95746;-53
2021/10/09 11:35:08;;;;;;;8.73;2.38;;;18.30;68.70;;;;;;5042660;27;95679;-62
2021/10/09 11:37:46;;;;;;;8.07;2.22;;;18.30;68.50;;;;;;5043009;27;95333;-60
2021/10/09 11:40:44;;;;;;;12.02;2.65;;;18.30;67.50;;;;;;5024689;27;95858;-61
2021/10/09 11:43:31;;;;;;;6.82;2.28;;;18.20;67.50;;;;;;5039018;27;95899;-60
2021/10/09 11:55:00;;;;;;;7.63;1.90;;;18.00;68.10;;;;;;5024566;27;95946;-50
2021/10/09 11:57:33;;;;;;;;;;;17.90;68.00;;;;;;5039920;27;95864;-51
2021/10/09 12:00:30;;;;;;;8.05;2.75;;;17.80;68.30;;;;;;5041531;27;97529;-60
2021/10/09 12:03:22;;;;;;;7.88;2.38;;;17.80;68.40;;;;;;5035828;27;102228;-59
2021/10/09 12:06:10;;;;;;;8.13;2.22;;;17.70;68.50;;;;;;5033971;27;96126;-52
2021/10/09 12:08:54;;;;;;;8.90;2.95;;;17.70;68.80;;;;;;5041789;27;95934;-59
2021/10/09 12:11:31;;;;;;;10.35;2.55;;;17.70;69.00;;;;;;5024151;27;96146;-60
2021/10/09 12:14:12;;;;;;;10.32;2.28;;;17.60;69.00;;;;;;5039839;27;95980;-60
2021/10/09 12:16:46;;;;;;;11.95;2.65;;;17.60;69.10;;;;;;5035716;27;96065;-50
2021/10/09 12:19:30;;;;;;;7.28;2.05;;;17.50;69.10;;;;;;5036562;27;96108;-54
2021/10/09 12:22:11;;;;;;;5.65;2.55;;;17.50;69.50;;;;;;5038207;27;95402;-51
2021/10/09 12:24:50;;;;;;;;;;;17.50;69.30;;;;;;5036692;27;95953;-52
2021/10/09 12:27:22;;;;;;;11.98;2.70;;;17.50;69.80;;;;;;5042325;27;97779;-53
2021/10/09 12:30:12;;;;;;;7.30;1.92;;;17.40;70.10;;;;;;5041307;27;95628;-61
2021/10/09 12:32:49;;;;;;;10.85;2.60;;;17.30;70.40;;;;;;5039918;27;96074;-60
2021/10/09 12:35:28;;;;;;;10.23;3.50;;;17.30;70.30;;;;;;5038274;27;96728;-51
2021/10/09 12:38:05;;;;;;;8.43;2.47;;;17.20;70.90;;;;;;5021404;27;96495;-60
2021/10/09 12:40:43;;;;;;;11.15;2.58;;;17.20;70.70;;;;;;5045182;27;95732;-60
2021/10/09 12:43:19;;;;;;;12.55;5.25;;;17.10;71.00;;;;;;5045252;27;95988;-60
2021/10/09 12:45:52;;;;;;;10.82;3.75;;;17.10;71.00;;;;;;5039505;27;96028;-60
2021/10/09 12:48:23;;;;;;;12.75;3.67;;;17.00;71.10;;;;;;5043979;27;96028;-60
2021/10/09 12:50:54;;;;;;;12.02;3.65;;;16.90;71.10;;;;;;5039776;27;95897;-61
2021/10/09 12:53:25;;;;;;;9.88;3.22;;;16.90;71.10;;;;;;5039931;27;96600;-60
2021/10/09 12:55:56;;;;;;;9.20;2.87;;;16.80;71.10;;;;;;5039352;27;96659;-61
2021/10/09 12:58:27;;;;;;;11.52;2.40;;;16.80;71.60;;;;;;5045008;27;95990;-60
2021/10/09 13:00:56;;;;;;;9.80;2.60;;;16.80;71.90;;;;;;5040680;27;96490;-60
2021/10/09 13:03:26;;;;;;;10.88;2.78;;;16.80;72.20;;;;;;5044906;27;97763;-58
2021/10/09 13:05:56;;;;;;;9.30;2.20;;;16.80;72.30;;;;;;5042296;27;96619;-61
2021/10/09 13:08:29;;;;;;;10.43;2.53;;;16.70;71.80;;;;;;5043343;27;96690;-60
2021/10/09 13:11:00;;;;;;;12.45;2.30;;;16.70;71.40;;;;;;5037279;27;96837;-61
2021/10/09 13:13:31;;;;;;;;;;;16.70;71.50;;;;;;5024592;27;97840;-60
2021/10/09 13:16:02;;;;;;;8.02;2.40;;;16.60;71.30;;;;;;5039668;27;95888;-60
2021/10/09 13:18:34;;;;;;;8.35;2.05;;;16.60;71.30;;;;;;5044491;27;96490;-61
2021/10/09 13:21:17;;;;;;;11.25;2.83;;;16.60;71.50;;;;;;5024449;27;97871;-60
2021/10/09 13:23:48;;;;;;;9.68;3.08;;;16.50;71.40;;;;;;5040619;27;96637;-61
2021/10/09 13:26:19;;;;;;;10.43;3.78;;;16.30;72.70;;;;;;5036848;27;95922;-60
2021/10/09 13:28:49;;;;;;;8.52;2.58;;;16.30;72.50;;;;;;5040494;27;95825;-60
2021/10/09 13:31:20;;;;;;;10.07;2.70;;;16.30;72.90;;;;;;5039790;27;96585;-60
2021/10/09 13:33:52;;;;;;;11.38;3.35;;;16.30;73.20;;;;;;5043300;27;95677;-61
2021/10/09 13:36:24;;;;;;;13.27;2.92;;;16.20;72.40;;;;;;5041767;27;95944;-61
2021/10/09 13:38:57;;;;;;;13.07;2.72;;;16.10;73.10;;;;;;5043640;27;95847;-61
2021/10/09 13:41:27;;;;;;;10.82;3.60;;;16.10;73.50;;;;;;5044147;27;95748;-60
2021/10/09 13:43:59;;;;;;;11.73;3.05;;;16.00;73.60;;;;;;5034279;27;95808;-60
2021/10/09 13:46:32;;;;;;;8.05;2.38;;;16.00;73.70;;;;;;5036112;27;95983;-61
2021/10/09 13:49:05;;;;;;;10.82;3.40;;;16.30;63.50;;;;;;5041107;27;95710;-61
2021/10/09 13:51:35;;;;;;;9.32;3.08;;;16.30;72.40;;;;;;5036671;27;95813;-62
2021/10/09 13:54:09;;;;;;;7.13;3.15;;;16.40;72.20;;;;;;5037250;27;95827;-60
2021/10/09 13:56:41;;;;;;;12.63;4.05;;;16.50;72.00;;;;;;5034458;27;95967;-62
2021/10/09 13:59:13;;;;;;;9.00;2.97;;;16.60;71.90;;;;;;5035089;27;97972;-50
2021/10/09 14:01:43;;;;;;;14.83;3.80;;;16.50;72.10;;;;;;5032047;27;95948;-63
2021/10/09 14:04:14;;;;;;;10.27;3.22;;;16.40;72.60;;;;;;5042041;27;95255;-48
2021/10/09 14:06:44;;;;;;;6.43;2.50;;;16.40;73.00;;;;;;5039555;27;95882;-61
2021/10/09 14:09:15;;;;;;;6.88;2.42;;;16.60;72.90;;;;;;5036271;27;95933;-61
2021/10/09 14:11:46;;;;;;;3.38;1.77;;;16.70;72.50;;;;;;5040659;27;95817;-61
2021/10/09 14:14:20;;;;;;;4.75;2.00;;;16.80;72.30;;;;;;5040291;27;95235;-49
2021/10/09 14:16:53;;;;;;;4.43;1.67;;;16.90;71.90;;;;;;5025586;27;98709;-61
2021/10/09 14:19:24;;;;;;;7.03;2.15;;;17.00;71.80;;;;;;5032432;27;97618;-50
2021/10/09 14:21:56;;;;;;;;;;;17.10;71.60;;;;;;5042238;27;95545;-61
2021/10/09 14:24:29;;;;;;;3.83;1.52;;;17.20;71.40;;;;;;5044530;27;95761;-60
2021/10/09 14:26:59;;;;;;;4.35;1.77;;;17.20;71.20;;;;;;5036237;27;95934;-61
2021/10/09 14:29:30;;;;;;;4.88;1.70;;;17.30;71.20;;;;;;5036687;27;97083;-48
2021/10/09 14:32:00;;;;;;;;;;;17.40;71.10;;;;;;5019797;27;95847;-50
2021/10/09 14:34:30;;;;;;;4.32;1.60;;;17.40;70.90;;;;;;5046889;27;95809;-61
2021/10/09 14:37:01;;;;;;;3.63;1.55;;;17.40;70.80;;;;;;5030475;27;95838;-61
2021/10/09 14:39:33;;;;;;;4.05;1.92;;;17.50;70.70;;;;;;5031952;27;97910;-61
2021/10/09 14:42:05;;;;;;;5.38;1.77;;;17.50;70.60;;;;;;5045489;27;95744;-61
2021/10/09 14:44:35;;;;;;;6.22;1.33;;;17.50;70.60;;;;;;5042132;27;95883;-60
2021/10/09 14:50:08;;;;;;;3.33;1.35;;;17.60;70.50;;;;;;5040883;27;95816;-50
2021/10/09 15:01:46;;;;;;;2.17;1.40;;;17.70;70.30;;;;;;5043965;27;96025;-52
2021/10/09 15:18:22;;;;;;;4.05;2.05;;;17.70;70.00;;;;;;5046130;27;95583;-49
2021/10/09 15:20:54;;;;;;;5.90;1.83;;;17.80;70.00;;;;;;5039187;27;96564;-49
2021/10/09 15:23:28;;;;;;;4.95;1.50;;;17.70;70.00;;;;;;5033155;27;95408;-50
2021/10/09 15:26:00;;;;;;;3.90;1.60;;;17.80;70.70;;;;;;5029377;27;96705;-50
2021/10/09 15:28:30;;;;;;;3.90;1.58;;;17.70;70.00;;;;;;5050557;27;95394;-49
2021/10/09 15:31:14;;;;;;;4.85;1.70;;;17.80;70.00;;;;;;5032259;27;96017;-50
2021/10/09 15:33:45;;;;;;;3.88;1.27;;;17.80;70.00;;;;;;5038852;27;95846;-51
2021/10/09 15:36:16;;;;;;;4.70;1.85;;;17.80;70.00;;;;;;5033059;27;95374;-49
2021/10/09 15:38:46;;;;;;;2.80;1.20;;;17.80;70.00;;;;;;5039546;27;95806;-49
2021/10/09 15:41:17;;;;;;;5.38;1.80;;;17.80;70.00;;;;;;5029090;27;95933;-50
2021/10/09 15:43:48;;;;;;;3.78;1.77;;;17.80;70.00;;;;;;5029251;27;95863;-50
2021/10/09 15:46:20;;;;;;;4.50;1.65;;;17.70;70.00;;;;;;5039687;27;96070;-50
2021/10/09 15:48:51;;;;;;;4.47;1.90;;;17.80;70.00;;;;;;5036125;27;95539;-49